Regal Bay — C6UG6 — position and weather

sailwx.info

Track history (hours):
 
Tides and Currents Weather Stations Pressure Air Temp Water Temp Dewpoint Dewpoint Depression Visibility Wind Speed Wind Dir Waves Ship Positions

Regal Bay

Last reported at 2018-Apr-13 23:25 UTC. Time now 2018-Apr-24 12:48 UTC.
Position N 09°12' W 079°54'.
Warning: this ship's position is 10 days out of date.

Length 150 m; draft 6 m.

Type: Cargo ship. MMSI: 311907000.

Date/timePositionNaut miles runAvg speedWind from/ knotsBaromVisibWave heightAir tempDewpointWater temp
2018-Apr-13 23:25N 09°12' W 079°54'4 9.7
2018-Apr-13 22:59N 09°16' W 079°55'1 0.7
2018-Apr-13 22:07N 09°17' W 079°55'0 0.0
2018-Apr-13 21:59N 09°17' W 079°55'1 1.0
2018-Apr-13 21:25N 09°17' W 079°55'1 3.0
2018-Apr-13 21:00N 09°18' W 079°55'10 6.7
2018-Apr-13 19:30N 09°28' W 079°56'1 1.1
2018-Apr-13 18:55N 09°28' W 079°57'0 0.0
2018-Apr-13 18:19N 09°28' W 079°57'0 0.0
2018-Apr-13 17:58N 09°28' W 079°57'0 0.0
2018-Apr-13 17:13N 09°28' W 079°57'0 0.0
2018-Apr-13 16:49N 09°28' W 079°57'0 0.0
2018-Apr-13 16:13N 09°28' W 079°57'0 0.0
2018-Apr-13 15:55N 09°28' W 079°57'0 0.1
2018-Apr-13 15:22N 09°28' W 079°57'0 0.0
2018-Apr-13 14:42N 09°28' W 079°57'0 0.0
2018-Apr-13 14:30N 09°28' W 079°57'0 0.0
2018-Apr-13 14:00N 09°28' W 079°57'0 0.0
2018-Apr-13 13:30N 09°28' W 079°57'0 0.0
2018-Apr-13 13:00N 09°28' W 079°57'0 0.0
2018-Apr-13 10:48N 09°28' W 079°57'0 0.1
2018-Apr-13 10:21N 09°28' W 079°57'0 0.0
2018-Apr-13 09:45N 09°28' W 079°57'0 0.0
2018-Apr-13 07:36N 09°28' W 079°57'0 0.0
2018-Apr-13 07:18N 09°28' W 079°57'0 0.0
2018-Apr-13 06:57N 09°28' W 079°57'0 0.0
2018-Apr-13 06:24N 09°28' W 079°57'0 0.0
2018-Apr-13 05:24N 09°28' W 079°57'0 0.0
2018-Apr-13 05:00N 09°28' W 079°57'0 0.0
2018-Apr-13 04:30N 09°28' W 079°57'0 0.1
2018-Apr-13 04:00N 09°28' W 079°57'0 0.1
2018-Apr-13 03:30N 09°28' W 079°57'0 0.1
2018-Apr-13 03:00N 09°28' W 079°57'0 0.1
2018-Apr-13 02:21N 09°28' W 079°57'0 0.2
2018-Apr-13 01:57N 09°28' W 079°57'0 0.1
2018-Apr-13 01:09N 09°28' W 079°57'0 0.1
2018-Apr-13 01:00N 09°28' W 079°57'0 0.0
2018-Apr-13 00:24N 09°28' W 079°57'0 0.0
2018-Apr-13 00:00N 09°28' W 079°57'0 0.1
2018-Apr-12 23:30N 09°28' W 079°57'0 0.0
2018-Apr-12 22:54N 09°28' W 079°57'0 0.0
2018-Apr-12 22:15N 09°28' W 079°57'0 0.0
2018-Apr-12 21:57N 09°28' W 079°57'0 0.0
2018-Apr-12 20:27N 09°28' W 079°57'0 0.1
2018-Apr-12 19:57N 09°28' W 079°57'0 0.0
2018-Apr-12 19:27N 09°28' W 079°57'0 0.0
2018-Apr-12 17:57N 09°28' W 079°57'  
Track history (hours):
 
Tides and Currents Weather Stations Pressure Air Temp Water Temp Dewpoint Dewpoint Depression Visibility Wind Speed Wind Dir Waves Ship Positions

Regal Bay

Last reported at 2018-Apr-13 23:25 UTC. Time now 2018-Apr-24 12:48 UTC.
Position N 09°12' W 079°54'.
Warning: this ship's position is 10 days out of date.

Length 150 m; draft 6 m.

Type: Cargo ship. MMSI: 311907000.

Date/timePositionNaut miles runAvg speedWind from/ knotsBaromVisibWave heightAir tempDewpointWater temp
2018-Apr-13 23:25N 09°12' W 079°54'4 9.7
2018-Apr-13 22:59N 09°16' W 079°55'1 0.7
2018-Apr-13 22:07N 09°17' W 079°55'0 0.0
2018-Apr-13 21:59N 09°17' W 079°55'1 1.0
2018-Apr-13 21:25N 09°17' W 079°55'1 3.0
2018-Apr-13 21:00N 09°18' W 079°55'10 6.7
2018-Apr-13 19:30N 09°28' W 079°56'1 1.1
2018-Apr-13 18:55N 09°28' W 079°57'0 0.0
2018-Apr-13 18:19N 09°28' W 079°57'0 0.0
2018-Apr-13 17:58N 09°28' W 079°57'0 0.0
2018-Apr-13 17:13N 09°28' W 079°57'0 0.0
2018-Apr-13 16:49N 09°28' W 079°57'0 0.0
2018-Apr-13 16:13N 09°28' W 079°57'0 0.0
2018-Apr-13 15:55N 09°28' W 079°57'0 0.1
2018-Apr-13 15:22N 09°28' W 079°57'0 0.0
2018-Apr-13 14:42N 09°28' W 079°57'0 0.0
2018-Apr-13 14:30N 09°28' W 079°57'0 0.0
2018-Apr-13 14:00N 09°28' W 079°57'0 0.0
2018-Apr-13 13:30N 09°28' W 079°57'0 0.0
2018-Apr-13 13:00N 09°28' W 079°57'0 0.0
2018-Apr-13 10:48N 09°28' W 079°57'0 0.1
2018-Apr-13 10:21N 09°28' W 079°57'0 0.0
2018-Apr-13 09:45N 09°28' W 079°57'0 0.0
2018-Apr-13 07:36N 09°28' W 079°57'0 0.0
2018-Apr-13 07:18N 09°28' W 079°57'0 0.0
2018-Apr-13 06:57N 09°28' W 079°57'0 0.0
2018-Apr-13 06:24N 09°28' W 079°57'0 0.0
2018-Apr-13 05:24N 09°28' W 079°57'0 0.0
2018-Apr-13 05:00N 09°28' W 079°57'0 0.0
2018-Apr-13 04:30N 09°28' W 079°57'0 0.1
2018-Apr-13 04:00N 09°28' W 079°57'0 0.1
2018-Apr-13 03:30N 09°28' W 079°57'0 0.1
2018-Apr-13 03:00N 09°28' W 079°57'0 0.1
2018-Apr-13 02:21N 09°28' W 079°57'0 0.2
2018-Apr-13 01:57N 09°28' W 079°57'0 0.1
2018-Apr-13 01:09N 09°28' W 079°57'0 0.1
2018-Apr-13 01:00N 09°28' W 079°57'0 0.0
2018-Apr-13 00:24N 09°28' W 079°57'0 0.0
2018-Apr-13 00:00N 09°28' W 079°57'0 0.1
2018-Apr-12 23:30N 09°28' W 079°57'0 0.0
2018-Apr-12 22:54N 09°28' W 079°57'0 0.0
2018-Apr-12 22:15N 09°28' W 079°57'0 0.0
2018-Apr-12 21:57N 09°28' W 079°57'0 0.0
2018-Apr-12 20:27N 09°28' W 079°57'0 0.1
2018-Apr-12 19:57N 09°28' W 079°57'0 0.0
2018-Apr-12 19:27N 09°28' W 079°57'0 0.0
2018-Apr-12 17:57N 09°28' W 079°57'  

Dump ship's entire track history